Time;durP1;ratioP1;P1;durP2;ratioP2;P2;SDS_P1;SDS_P2;PMS_P1;PMS_P2;Temp;Humidity;BMP_temperature;BMP_pressure;BME280_temperature;BME280_humidity;BME280_pressure;Samples;Min_cycle;Max_cycle;Signal;HPM_P1;HPM_P2
2023/04/18 00:01:37;;;;;;;;;;;;;;;16.27;46.84;100580.84;5017264;28;1210;-55
2023/04/18 00:04:03;;;;;;;;;;;;;;;17.04;47.77;100575.19;5017178;28;1155;-54
2023/04/18 00:06:34;;;;;;;;;;;;;;;16.47;47.55;100582.75;5023334;28;1123;-54
2023/04/18 00:09:00;;;;;;;;;;;;;;;16.31;47.00;100581.94;5017559;28;1113;-55
2023/04/18 00:11:26;;;;;;;;;;;;;;;16.18;46.24;100582.50;5017113;28;1129;-54
2023/04/18 00:13:51;;;;;;;;;;;;;;;15.95;46.19;100584.72;5016914;28;1024;-53
2023/04/18 00:16:17;;;;;;;;;;;;;;;17.04;47.38;100580.69;5016930;28;1906;-55
2023/04/18 00:18:43;;;;;;;;;;;;;;;16.36;47.63;100575.63;5017973;28;1092;-55
2023/04/18 00:21:08;;;;;;;;;;;;;;;16.52;47.71;100573.66;5016621;28;1031;-54
2023/04/18 00:23:34;;;;;;;;;;;;;;;16.71;47.81;100571.16;5016613;28;1004;-54
2023/04/18 00:26:00;;;;;;;;;;;;;;;16.24;47.69;100565.78;5017124;28;1151;-53
2023/04/18 00:28:25;;;;;;;;;;;;;;;16.15;47.09;100564.66;5016463;28;1060;-54
2023/04/18 00:30:51;;;;;;;;;;;;;;;16.05;46.10;100568.25;5024483;28;1016;-53
2023/04/18 00:33:17;;;;;;;;;;;;;;;17.44;47.02;100561.50;5017796;28;1146;-53
2023/04/18 00:35:42;;;;;;;;;;;;;;;16.63;47.53;100553.31;5016828;28;1919;-53
2023/04/18 00:38:08;;;;;;;;;;;;;;;16.25;47.39;100542.69;5016687;28;1111;-54
2023/04/18 00:40:33;;;;;;;;;;;;;;;16.97;47.43;100549.09;5015169;28;1142;-54
2023/04/18 00:42:59;;;;;;;;;;;;;;;16.55;48.26;100543.75;5026285;28;1106;-50
2023/04/18 00:45:24;;;;;;;;;;;;;;;17.83;47.30;100546.09;5015027;28;1124;-50
2023/04/18 00:47:50;;;;;;;;;;;;;;;18.12;48.01;100538.72;5015047;28;1111;-50
2023/04/18 00:50:16;;;;;;;;;;;;;;;17.07;48.88;100546.34;5016605;28;1007;-53
2023/04/18 00:52:41;;;;;;;;;;;;;;;16.73;48.15;100536.84;5016201;28;1091;-51
2023/04/18 00:55:07;;;;;;;;;;;;;;;16.54;47.64;100533.88;5023752;28;1906;-49
2023/04/18 00:57:33;;;;;;;;;;;;;;;16.37;47.09;100531.44;5016233;28;1277;-51
2023/04/18 00:59:59;;;;;;;;;;;;;;;16.31;46.42;100531.72;5015552;28;1163;-51
2023/04/18 01:02:29;;;;;;;;;;;;;;;16.18;46.04;100535.88;5014724;28;1076;-51
2023/04/18 01:04:57;;;;;;;;;;;;;;;16.07;45.88;100533.16;5015361;28;1171;-48
2023/04/18 01:07:24;;;;;;;;;;;;;;;17.15;47.70;100529.22;5018153;28;1088;-50
2023/04/18 01:09:49;;;;;;;;;;;;;;;16.48;48.08;100529.50;5016063;28;1225;-49
2023/04/18 01:12:15;;;;;;;;;;;;;;;16.28;47.52;100544.06;5015828;28;1111;-50
2023/04/18 01:14:44;;;;;;;;;;;;;;;17.33;48.10;100541.50;5016633;28;1977;-48
2023/04/18 01:17:09;;;;;;;;;;;;;;;16.52;48.47;100538.81;5015244;28;1550;-51
2023/04/18 01:19:36;;;;;;;;;;;;;;;16.39;47.52;100537.47;5030207;28;913;-51
2023/04/18 01:22:02;;;;;;;;;;;;;;;17.00;48.23;100541.13;5019889;28;1094;-47
2023/04/18 01:24:30;;;;;;;;;;;;;;;16.48;48.12;100536.88;5018571;28;1106;-51
2023/04/18 01:26:56;;;;;;;;;;;;;;;16.29;47.10;100534.75;5020008;28;1135;-52
2023/04/18 01:29:21;;;;;;;;;;;;;;;16.12;46.65;100534.22;5020167;28;1134;-50
2023/04/18 01:31:48;;;;;;;;;;;;;;;16.60;46.96;100519.00;5025056;28;961;-50
2023/04/18 01:34:16;;;;;;;;;;;;;;;16.61;47.61;100517.09;5018497;28;1887;-48
2023/04/18 01:36:42;;;;;;;;;;;;;;;16.28;47.39;100500.16;5019808;28;1035;-51
2023/04/18 01:39:10;;;;;;;;;;;;;;;16.47;47.04;100499.59;5019736;28;1198;-54
2023/04/18 01:41:36;;;;;;;;;;;;;;;16.71;47.92;100495.09;5018580;28;1174;-55
2023/04/18 01:44:02;;;;;;;;;;;;;;;16.43;47.41;100491.09;5031475;28;1059;-53
2023/04/18 01:46:27;;;;;;;;;;;;;;;16.82;47.91;100493.13;5018594;28;1290;-54
2023/04/18 01:48:53;;;;;;;;;;;;;;;16.57;47.94;100492.13;5019536;28;1031;-54
2023/04/18 01:51:19;;;;;;;;;;;;;;;16.30;47.36;100498.00;5017883;28;2008;-53
2023/04/18 01:53:45;;;;;;;;;;;;;;;16.81;47.63;100491.47;5018772;28;1486;-54
2023/04/18 01:56:10;;;;;;;;;;;;;;;16.56;48.26;100496.00;5024301;28;1906;-54
2023/04/18 01:58:36;;;;;;;;;;;;;;;16.31;47.60;100488.63;5019588;28;1132;-52
2023/04/18 02:01:02;;;;;;;;;;;;;;;17.05;47.45;100480.66;5017973;28;1100;-53
2023/04/18 02:03:28;;;;;;;;;;;;;;;16.52;48.18;100478.44;5018969;28;1031;-53
2023/04/18 02:05:54;;;;;;;;;;;;;;;17.65;47.63;100492.63;5018028;28;1763;-53
2023/04/18 02:08:19;;;;;;;;;;;;;;;17.86;48.19;100498.75;5019056;28;896;-53
2023/04/18 02:10:45;;;;;;;;;;;;;;;16.92;48.64;100498.59;5019298;28;1123;-53
2023/04/18 02:13:11;;;;;;;;;;;;;;;16.65;47.82;100501.72;5018903;28;1110;-53
2023/04/18 02:15:36;;;;;;;;;;;;;;;16.52;47.25;100488.56;5057716;28;1906;-53
2023/04/18 02:18:02;;;;;;;;;;;;;;;16.43;46.18;100480.09;5024268;28;1014;-51
2023/04/18 02:20:30;;;;;;;;;;;;;;;17.00;48.08;100488.09;5025848;28;968;-53
2023/04/18 02:22:57;;;;;;;;;;;;;;;16.60;47.97;100490.75;5018973;28;1194;-49
2023/04/18 02:25:25;;;;;;;;;;;;;;;16.36;47.54;100485.88;5018818;28;1103;-51
2023/04/18 02:27:51;;;;;;;;;;;;;;;17.24;48.13;100482.75;5018384;28;1070;-52
2023/04/18 02:30:17;;;;;;;;;;;;;;;16.57;48.32;100492.13;5018815;28;1048;-51
2023/04/18 02:32:42;;;;;;;;;;;;;;;16.42;47.03;100495.75;5019644;28;964;-53
2023/04/18 02:35:09;;;;;;;;;;;;;;;17.37;47.88;100497.78;5018131;28;1902;-52
2023/04/18 02:37:34;;;;;;;;;;;;;;;16.71;48.11;100491.53;5018648;28;1048;-49
2023/04/18 02:40:00;;;;;;;;;;;;;;;16.50;47.43;100493.53;5018769;28;1139;-50
2023/04/18 02:42:30;;;;;;;;;;;;;;;16.16;47.18;100494.16;5017284;28;1214;-54
2023/04/18 02:44:56;;;;;;;;;;;;;;;16.75;47.26;100493.44;5016741;28;1131;-50
2023/04/18 02:47:22;;;;;;;;;;;;;;;16.81;47.81;100496.16;5017254;28;1182;-54
2023/04/18 02:49:48;;;;;;;;;;;;;;;16.37;47.66;100483.97;5016995;28;1365;-53
2023/04/18 02:52:13;;;;;;;;;;;;;;;16.29;46.70;100490.03;5016732;28;1997;-54
2023/04/18 02:54:39;;;;;;;;;;;;;;;17.16;47.35;100486.09;5018229;28;1961;-55
2023/04/18 02:57:10;;;;;;;;;;;;;;;16.42;47.80;100484.78;5016633;28;1422;-56
2023/04/18 02:59:56;;;;;;;;;;;;;;;16.38;47.27;100500.16;5017775;28;1148;-56
2023/04/18 03:02:33;;;;;;;;;;;;;;;16.70;48.23;100500.88;5017992;28;1147;-56
2023/04/18 03:05:15;;;;;;;;;;;;;;;16.85;48.00;100500.78;5016639;28;1164;-56
2023/04/18 03:07:41;;;;;;;;;;;;;;;17.97;47.29;100494.84;5021645;28;1297;-56
2023/04/18 03:10:06;;;;;;;;;;;;;;;16.83;48.77;100493.94;5022751;28;1105;-56
2023/04/18 03:12:34;;;;;;;;;;;;;;;16.61;47.80;100497.88;5017060;28;1247;-51
2023/04/18 03:15:01;;;;;;;;;;;;;;;16.47;46.98;100497.66;5016378;28;1960;-58
2023/04/18 03:17:27;;;;;;;;;;;;;;;16.37;46.45;100487.53;5016401;28;1175;-58
2023/04/18 03:19:52;;;;;;;;;;;;;;;17.10;47.71;100493.56;5020037;28;1248;-57
2023/04/18 03:22:19;;;;;;;;;;;;;;;16.46;48.19;100501.50;5016538;28;1156;-56
2023/04/18 03:24:51;;;;;;;;;;;;;;;16.38;47.11;100493.84;5000606;28;1223;-58
2023/04/18 03:27:18;;;;;;;;;;;;;;;16.27;46.22;100497.72;5016185;28;1242;-57
2023/04/18 03:29:45;;;;;;;;;;;;;;;16.87;46.98;100506.00;5016165;28;1225;-55
2023/04/18 03:32:12;;;;;;;;;;;;;;;16.54;47.99;100508.34;5023871;28;1361;-55
2023/04/18 03:34:37;;;;;;;;;;;;;;;16.89;47.71;100520.31;5020855;28;1970;-55
2023/04/18 03:37:05;;;;;;;;;;;;;;;17.63;47.85;100517.66;5016216;28;1231;-56
2023/04/18 03:39:36;;;;;;;;;;;;;;;16.68;48.50;100509.38;5016157;28;1229;-57
2023/04/18 03:42:02;;;;;;;;;;;;;;;16.57;47.33;100524.25;5016828;28;1135;-56
2023/04/18 03:44:28;;;;;;;;;;;;;;;16.55;47.21;100529.19;5021323;28;1249;-57
2023/04/18 03:46:56;;;;;;;;;;;;;;;17.18;48.33;100527.84;5015801;28;1179;-60
2023/04/18 03:49:22;;;;;;;;;;;;;;;16.67;48.03;100540.69;5013082;28;1247;-58
2023/04/18 03:51:48;;;;;;;;;;;;;;;16.39;47.52;100545.69;5008940;28;1514;-60
2023/04/18 03:54:14;;;;;;;;;;;;;;;17.55;47.84;100545.75;5009935;28;1902;-54
2023/04/18 03:56:40;;;;;;;;;;;;;;;16.73;48.48;100550.56;5015364;28;1108;-53
2023/04/18 03:59:07;;;;;;;;;;;;;;;16.48;47.41;100553.34;5015598;28;1191;-53
2023/04/18 04:01:32;;;;;;;;;;;;;;;16.23;47.08;100557.81;5016719;28;1138;-53
2023/04/18 04:03:58;;;;;;;;;;;;;;;16.25;46.29;100544.63;5037058;28;1243;-51
2023/04/18 04:06:25;;;;;;;;;;;;;;;16.18;46.02;100541.34;5015610;28;1174;-51
2023/04/18 04:08:50;;;;;;;;;;;;;;;16.67;47.55;100551.66;5020548;28;1029;-53
2023/04/18 04:11:20;;;;;;;;;;;;;;;16.24;47.38;100546.56;5022154;28;1284;-53
2023/04/18 04:13:46;;;;;;;;;;;;;;;16.49;47.60;100553.06;5010278;28;1231;-49
2023/04/18 04:16:14;;;;;;;;;;;;;;;16.62;48.16;100548.94;5009974;28;1910;-53
2023/04/18 04:18:40;;;;;;;;;;;;;;;16.28;47.41;100546.00;5006963;28;1498;-53
2023/04/18 04:21:05;;;;;;;;;;;;;;;16.05;47.08;100546.31;5023754;28;1206;-53
2023/04/18 04:23:51;;;;;;;;;;;;;;;15.93;46.28;100553.97;5016507;28;1157;-50
2023/04/18 04:26:31;;;;;;;;;;;;;;;16.76;46.99;100547.25;5015611;28;1161;-49
2023/04/18 04:29:02;;;;;;;;;;;;;;;16.30;47.59;100547.38;5015221;28;1342;-55
2023/04/18 04:31:30;;;;;;;;;;;;;;;16.06;46.97;100550.69;5015429;28;1346;-55
2023/04/18 04:33:56;;;;;;;;;;;;;;;16.76;47.59;100555.47;5022284;28;1158;-55
2023/04/18 04:36:25;;;;;;;;;;;;;;;16.17;47.87;100553.41;5015436;28;1976;-54
2023/04/18 04:38:53;;;;;;;;;;;;;;;16.01;46.87;100553.44;5010278;28;1297;-48
2023/04/18 04:41:28;;;;;;;;;;;;;;;16.71;47.54;100555.50;5044509;28;1428;-51
2023/04/18 04:43:54;;;;;;;;;;;;;;;16.15;47.65;100558.38;4997414;28;1152;-57
2023/04/18 04:46:25;;;;;;;;;;;;;;;15.96;47.40;100561.66;5014748;28;1314;-53
2023/04/18 04:48:53;;;;;;;;;;;;;;;16.92;47.25;100574.69;5009250;28;1188;-53
2023/04/18 04:51:18;;;;;;;;;;;;;;;16.65;47.96;100578.59;5016593;28;1090;-54
2023/04/18 04:53:44;;;;;;;;;;;;;;;16.25;47.56;100570.13;5017348;28;1144;-55
2023/04/18 04:56:10;;;;;;;;;;;;;;;16.04;46.99;100572.06;5022114;28;1983;-57
2023/04/18 04:58:35;;;;;;;;;;;;;;;16.30;47.37;100572.06;5024029;28;981;-57
2023/04/18 05:01:21;;;;;;;;;;;;;;;16.53;47.88;100575.31;5020361;28;1051;-53
2023/04/18 05:03:50;;;;;;;;;;;;;;;17.66;47.52;100576.75;5018700;28;1127;-55
2023/04/18 05:06:19;;;;;;;;;;;;;;;18.49;47.03;100583.22;5009910;28;1332;-54
2023/04/18 05:08:48;;;;;;;;;;;;;;;17.60;48.85;100578.72;5004177;28;1187;-55
2023/04/18 05:11:14;;;;;;;;;;;;;;;17.07;50.10;100582.03;5016928;28;1088;-53
2023/04/18 05:13:39;;;;;;;;;;;;;;;16.80;50.79;100574.13;5010641;28;1057;-53
2023/04/18 05:16:06;;;;;;;;;;;;;;;16.57;50.88;100582.72;5009675;28;1987;-53
2023/04/18 05:18:31;;;;;;;;;;;;;;;16.40;51.18;100585.75;5007546;28;1158;-51
2023/04/18 05:20:57;;;;;;;;;;;;;;;16.27;51.43;100580.03;5017548;28;1219;-55
2023/04/18 05:23:22;;;;;;;;;;;;;;;16.13;51.92;100577.00;5019725;28;1087;-53
2023/04/18 05:25:48;;;;;;;;;;;;;;;16.03;51.83;100581.44;5009732;28;1322;-51
2023/04/18 05:28:14;;;;;;;;;;;;;;;15.90;52.09;100587.44;5014154;28;1100;-53
2023/04/18 05:30:39;;;;;;;;;;;;;;;15.82;52.38;100579.75;5012038;28;1262;-52
2023/04/18 05:33:05;;;;;;;;;;;;;;;15.72;52.22;100575.06;5021376;28;1230;-55
2023/04/18 05:35:30;;;;;;;;;;;;;;;15.69;52.42;100576.41;5021417;28;1980;-54
2023/04/18 05:37:56;;;;;;;;;;;;;;;15.57;52.58;100592.28;5007222;28;1224;-55
2023/04/18 05:40:22;;;;;;;;;;;;;;;15.47;52.51;100584.06;5014222;28;1253;-55
2023/04/18 05:42:47;;;;;;;;;;;;;;;15.36;52.71;100577.72;5001423;28;1219;-56
2023/04/18 05:45:13;;;;;;;;;;;;;;;15.34;52.57;100591.69;5019755;28;1294;-54
2023/04/18 05:47:39;;;;;;;;;;;;;;;15.21;53.07;100597.69;5014778;28;1423;-54
2023/04/18 05:50:05;;;;;;;;;;;;;;;16.56;50.74;100588.47;5018654;28;1155;-56
2023/04/18 05:52:31;;;;;;;;;;;;;;;16.65;50.50;100589.56;5017545;28;1047;-49
2023/04/18 05:54:56;;;;;;;;;;;;;;;15.97;52.23;100584.44;5017989;28;1969;-52
2023/04/18 05:57:22;;;;;;;;;;;;;;;15.72;52.65;100592.34;5013543;28;1367;-52
2023/04/18 05:59:47;;;;;;;;;;;;;;;15.60;52.91;100596.41;5001120;28;1084;-46
2023/04/18 06:02:13;;;;;;;;;;;;;;;15.49;52.90;100588.19;5005228;28;1503;-51
2023/04/18 06:04:40;;;;;;;;;;;;;;;15.40;52.99;100600.75;5011133;28;1411;-51
2023/04/18 06:07:06;;;;;;;;;;;;;;;15.66;52.68;100587.13;5012753;28;1174;-53
2023/04/18 06:09:31;;;;;;;;;;;;;;;16.83;50.25;100587.31;5011219;28;1095;-53
2023/04/18 06:11:57;;;;;;;;;;;;;;;15.95;52.36;100592.94;5014680;28;1367;-50
2023/04/18 06:14:22;;;;;;;;;;;;;;;15.64;52.96;100587.41;5010463;28;1915;-48
2023/04/18 06:16:48;;;;;;;;;;;;;;;15.51;53.11;100590.66;5011151;28;1330;-47
2023/04/18 06:19:14;;;;;;;;;;;;;;;15.39;53.34;100596.38;5015817;28;1056;-51
2023/04/18 06:21:41;;;;;;;;;;;;;;;15.28;53.23;100592.78;5010488;28;1097;-52
2023/04/18 06:24:07;;;;;;;;;;;;;;;16.76;50.39;100591.19;4998278;28;1430;-51
2023/04/18 06:26:33;;;;;;;;;;;;;;;16.55;50.81;100600.56;5006986;28;1427;-51
2023/04/18 06:28:58;;;;;;;;;;;;;;;15.94;52.44;100605.00;5006105;28;1163;-52
2023/04/18 06:31:24;;;;;;;;;;;;;;;15.70;52.76;100600.00;5008125;28;1561;-52
2023/04/18 06:33:49;;;;;;;;;;;;;;;15.53;52.98;100610.41;5026753;28;1127;-51
2023/04/18 06:36:15;;;;;;;;;;;;;;;15.39;53.45;100604.59;5020372;28;1922;-51
2023/04/18 06:38:41;;;;;;;;;;;;;;;15.32;53.31;100604.84;5008316;28;1243;-54
2023/04/18 06:41:06;;;;;;;;;;;;;;;15.51;53.10;100588.72;5014875;28;1114;-53
2023/04/18 06:43:32;;;;;;;;;;;;;;;17.04;49.94;100594.41;5008325;28;1136;-53
2023/04/18 06:45:59;;;;;;;;;;;;;;;16.42;51.22;100593.72;4976220;28;1332259;-50
2023/04/18 06:48:25;;;;;;;;;;;;;;;15.89;52.40;100586.63;5017973;28;1086;-50
2023/04/18 06:50:51;;;;;;;;;;;;;;;15.66;53.09;100582.44;5005829;28;1193;-52
2023/04/18 06:53:16;;;;;;;;;;;;;;;15.54;53.02;100579.13;5017729;28;1091;-52
2023/04/18 06:55:42;;;;;;;;;;;;;;;15.46;53.11;100588.72;5016100;28;1902;-48
2023/04/18 06:58:08;;;;;;;;;;;;;;;16.47;51.34;100588.22;5018116;28;876;-53
2023/04/18 07:00:34;;;;;;;;;;;;;;;16.69;50.58;100596.16;5017945;28;1143;-47
2023/04/18 07:03:01;;;;;;;;;;;;;;;16.00;52.21;100587.44;5017666;28;1079;-52
2023/04/18 07:05:27;;;;;;;;;;;;;;;15.73;52.85;100599.44;5017903;28;1198;-53
2023/04/18 07:07:52;;;;;;;;;;;;;;;15.57;53.07;100595.03;5017705;28;1229;-52
2023/04/18 07:10:18;;;;;;;;;;;;;;;15.46;53.14;100594.22;5024547;28;1020;-52
2023/04/18 07:12:43;;;;;;;;;;;;;;;15.40;53.29;100600.75;5017732;28;1102;-52
2023/04/18 07:15:09;;;;;;;;;;;;;;;15.33;53.62;100611.16;5020894;28;1910;-50
2023/04/18 07:17:35;;;;;;;;;;;;;;;16.85;50.38;100602.41;5012119;28;1350;-51
2023/04/18 07:20:01;;;;;;;;;;;;;;;16.55;50.66;100600.56;5001407;28;989;-50
2023/04/18 07:22:26;;;;;;;;;;;;;;;15.92;52.58;100607.16;5001645;28;1314;-53
2023/04/18 07:24:52;;;;;;;;;;;;;;;15.66;53.07;100604.38;5015486;28;1303;-56
2023/04/18 07:27:18;;;;;;;;;;;;;;;15.53;53.39;100611.22;5011368;28;1474;-51
2023/04/18 07:29:43;;;;;;;;;;;;;;;15.42;53.24;100615.03;5016729;28;1479;-53
2023/04/18 07:32:09;;;;;;;;;;;;;;;15.91;52.81;100611.03;5005494;28;1276;-54
2023/04/18 07:34:36;;;;;;;;;;;;;;;17.15;49.69;100606.16;5022966;28;1910;-46
2023/04/18 07:37:01;;;;;;;;;;;;;;;16.14;52.08;100614.31;5015152;28;1201;-49
2023/04/18 07:39:27;;;;;;;;;;;;;;;15.77;53.07;100607.13;4997555;28;1117;-51
2023/04/18 07:41:53;;;;;;;;;;;;;;;15.62;53.09;100613.44;4997554;28;1387;-55
2023/04/18 07:44:20;;;;;;;;;;;;;;;15.50;53.34;100621.88;4996945;28;1305;-46
2023/04/18 07:46:46;;;;;;;;;;;;;;;15.36;53.65;100621.56;5004422;28;1359;-48
2023/04/18 07:49:11;;;;;;;;;;;;;;;16.76;50.59;100613.16;4999093;28;1200;-53
2023/04/18 07:51:37;;;;;;;;;;;;;;;16.97;50.11;100621.34;5002782;28;1388;-49
2023/04/18 07:54:03;;;;;;;;;;;;;;;16.18;52.07;100623.66;5003165;28;1265;-51
2023/04/18 07:56:28;;;;;;;;;;;;;;;15.85;52.81;100618.44;5001630;28;1902;-53
2023/04/18 07:58:54;;;;;;;;;;;;;;;15.66;53.09;100618.09;5013862;28;1285;-55
2023/04/18 08:01:23;;;;;;;;;;;;;;;15.51;53.47;100629.00;5017730;28;1054;-53
2023/04/18 08:03:48;;;;;;;;;;;;;;;15.40;53.63;100633.63;5016098;28;925;-53
2023/04/18 08:06:15;;;;;;;;;;;;;;;15.91;52.97;100633.78;5015232;28;1266;-54
2023/04/18 08:08:41;;;;;;;;;;;;;;;17.28;49.25;100626.72;5010759;28;1325;-52
2023/04/18 08:11:07;;;;;;;;;;;;;;;16.39;51.66;100635.44;5022174;28;944;-55
2023/04/18 08:13:32;;;;;;;;;;;;;;;15.96;52.50;100635.69;5016334;28;1078;-53
2023/04/18 08:15:58;;;;;;;;;;;;;;;15.74;53.17;100647.72;5006226;28;1902;-54
2023/04/18 08:18:24;;;;;;;;;;;;;;;15.59;53.16;100647.69;5014530;28;1167;-55
2023/04/18 08:20:50;;;;;;;;;;;;;;;15.47;53.36;100644.34;5009708;28;1242;-54
2023/04/18 08:23:16;;;;;;;;;;;;;;;15.62;53.37;100652.59;5015450;28;848;-54
2023/04/18 08:25:41;;;;;;;;;;;;;;;17.13;50.12;100648.78;5029210;28;1063;-55
2023/04/18 08:28:07;;;;;;;;;;;;;;;16.26;51.95;100647.81;5015859;28;1154;-48
2023/04/18 08:30:32;;;;;;;;;;;;;;;15.85;52.96;100650.50;5016501;28;1167;-47
2023/04/18 08:32:58;;;;;;;;;;;;;;;15.64;53.52;100661.41;5016338;28;1229;-52
2023/04/18 08:35:24;;;;;;;;;;;;;;;15.52;53.64;100658.06;5021501;28;1980;-52
2023/04/18 08:37:50;;;;;;;;;;;;;;;15.40;53.84;100656.41;5016077;28;1083;-49
2023/04/18 08:40:15;;;;;;;;;;;;;;;16.33;51.99;100653.84;5015747;28;1023;-47
2023/04/18 08:42:42;;;;;;;;;;;;;;;17.15;49.84;100658.34;5015999;28;1126;-50
2023/04/18 08:45:08;;;;;;;;;;;;;;;16.23;52.01;100667.56;5016084;28;1060;-52
2023/04/18 08:47:34;;;;;;;;;;;;;;;15.85;53.07;100678.75;5028276;28;1098;-45
2023/04/18 08:50:00;;;;;;;;;;;;;;;15.66;53.36;100670.16;5016682;28;1047;-52
2023/04/18 08:52:26;;;;;;;;;;;;;;;15.55;53.53;100663.00;5008254;28;1146;-44
2023/04/18 08:54:51;;;;;;;;;;;;;;;15.48;53.69;100673.41;4999730;28;1914;-45
2023/04/18 08:57:22;;;;;;;;;;;;;;;16.93;50.67;100667.78;4999473;28;1849;-50
2023/04/18 08:59:49;;;;;;;;;;;;;;;16.40;51.83;100668.09;5001663;28;1509;-44
2023/04/18 09:02:14;;;;;;;;;;;;;;;15.89;53.08;100671.63;4997108;28;1092;-47
2023/04/18 09:04:42;;;;;;;;;;;;;;;15.72;53.45;100668.25;4996349;28;1242;-48
2023/04/18 09:07:08;;;;;;;;;;;;;;;15.55;53.78;100669.31;5015213;28;1275;-48
2023/04/18 09:09:43;;;;;;;;;;;;;;;15.47;53.57;100656.13;5015848;28;1087;-47
2023/04/18 09:12:13;;;;;;;;;;;;;;;15.64;53.90;100660.56;5025438;28;910;-53
2023/04/18 09:14:44;;;;;;;;;;;;;;;17.16;50.26;100646.28;5011166;28;1906;-49
2023/04/18 09:17:11;;;;;;;;;;;;;;;16.37;52.17;100640.41;5006733;28;1083;-55
2023/04/18 09:19:42;;;;;;;;;;;;;;;15.91;53.18;100639.25;5004859;28;1091;-54
2023/04/18 09:22:08;;;;;;;;;;;;;;;15.69;53.36;100636.72;5013996;28;1499;-50
2023/04/18 09:24:34;;;;;;;;;;;;;;;15.57;53.73;100638.88;5014366;28;1246;-51
2023/04/18 09:27:00;;;;;;;;;;;;;;;15.53;53.65;100640.53;5007008;28;1176;-47
2023/04/18 09:29:42;;;;;;;;;;;;;;;17.05;50.44;100634.50;5004305;28;1556;-50
2023/04/18 09:32:07;;;;;;;;;;;;;;;16.31;51.98;100631.31;5015950;28;1102;-51
2023/04/18 09:34:37;;;;;;;;;;;;;;;15.84;53.26;100626.94;5006799;28;1902;-53
2023/04/18 09:37:06;;;;;;;;;;;;;;;15.64;53.73;100612.06;5014566;28;1148;-49
2023/04/18 09:39:32;;;;;;;;;;;;;;;15.54;53.63;100612.03;5020945;28;1044;-51
2023/04/18 09:41:57;;;;;;;;;;;;;;;15.44;53.65;100612.81;5028898;28;1071;-50
2023/04/18 09:44:23;;;;;;;;;;;;;;;16.36;52.24;100605.81;5019231;28;1047;-52
2023/04/18 09:46:49;;;;;;;;;;;;;;;17.20;50.05;100594.34;5022983;28;1206;-48
2023/04/18 09:49:15;;;;;;;;;;;;;;;16.23;52.54;100607.19;5013057;28;1062;-51
2023/04/18 09:51:41;;;;;;;;;;;;;;;15.90;53.13;100599.22;5009423;28;1293;-52
2023/04/18 09:54:06;;;;;;;;;;;;;;;15.71;53.38;100607.13;5016386;28;1709;-50
2023/04/18 09:56:32;;;;;;;;;;;;;;;15.54;53.79;100606.53;5015843;28;1985;-50
2023/04/18 09:59:02;;;;;;;;;;;;;;;15.52;53.64;100612.28;5012141;28;1410;-51
2023/04/18 10:01:28;;;;;;;;;;;;;;;15.39;54.28;100610.91;5034683;28;989;-50
2023/04/18 10:03:54;;;;;;;;;;;;;;;16.98;51.29;100606.50;5036594;28;1426;-52
2023/04/18 10:06:19;;;;;;;;;;;;;;;16.85;51.17;100607.09;5036817;28;1095;-54
2023/04/18 10:08:45;;;;;;;;;;;;;;;16.23;53.10;100602.53;5037409;28;1043;-53
2023/04/18 10:11:11;;;;;;;;;;;;;;;15.95;53.38;100603.91;5024560;28;1087;-47
2023/04/18 10:13:37;;;;;;;;;;;;;;;15.72;53.90;100603.31;5031141;28;1218;-47
2023/04/18 10:16:02;;;;;;;;;;;;;;;16.17;53.34;100600.06;5024462;28;1995;-57
2023/04/18 10:18:28;;;;;;;;;;;;;;;17.55;49.99;100606.25;5008677;28;1453;-55
2023/04/18 10:20:59;;;;;;;;;;;;;;;16.69;51.76;100609.88;5020506;28;1139;-51
2023/04/18 10:23:35;;;;;;;;;;;;;;;16.20;53.05;100613.22;5021867;28;1156;-55
2023/04/18 10:26:01;;;;;;;;;;;;;;;16.00;53.52;100603.88;5034840;28;1044;-55
2023/04/18 10:28:27;;;;;;;;;;;;;;;15.88;53.51;100597.88;5032793;28;1015;-53
2023/04/18 10:30:53;;;;;;;;;;;;;;;16.12;53.51;100598.16;5030521;28;1095;-54
2023/04/18 10:33:19;;;;;;;;;;;;;;;17.57;49.93;100596.63;5030205;28;1134;-49
2023/04/18 10:36:04;;;;;;;;;;;;;;;16.75;51.76;100603.25;5006502;28;1903;-55
2023/04/18 10:38:30;;;;;;;;;;;;;;;16.21;53.27;100598.41;5018242;28;1111;-50
2023/04/18 10:41:16;;;;;;;;;;;;;;;16.03;53.68;100602.53;5019241;28;1196;-57
2023/04/18 10:44:00;;;;;;;;;;;;;;;15.84;54.02;100591.28;5008217;28;1129;-54
2023/04/18 10:46:26;;;;;;;;;;;;;;;15.70;54.08;100583.56;5033785;28;1437;-53
2023/04/18 10:49:10;;;;;;;;;;;;;;;15.58;54.15;100574.75;5026387;28;870;-56
2023/04/18 10:51:36;;;;;;;;;;;;;;;15.52;54.10;100576.66;5005190;28;1151;-54
2023/04/18 10:54:01;;;;;;;;;;;;;;;16.33;53.09;100567.97;5025568;28;1223;-49
2023/04/18 10:56:27;;;;;;;;;;;;;;;17.40;50.40;100566.75;5026060;28;1988;-56
2023/04/18 10:58:53;;;;;;;;;;;;;;;16.42;52.89;100561.63;5021199;28;1161;-53
2023/04/18 11:01:28;;;;;;;;;;;;;;;16.10;53.80;100574.81;5030491;28;1019;-54
2023/04/18 11:03:54;;;;;;;;;;;;;;;15.87;53.95;100579.78;5023268;28;1383;-54
2023/04/18 11:06:20;;;;;;;;;;;;;;;15.67;54.21;100586.00;5032530;28;1011;-48
2023/04/18 11:08:46;;;;;;;;;;;;;;;15.59;54.22;100581.91;5032110;28;1036;-53
2023/04/18 11:11:12;;;;;;;;;;;;;;;15.92;54.13;100579.75;5037392;28;1079;-49
2023/04/18 11:13:52;;;;;;;;;;;;;;;17.36;50.77;100579.41;5023903;28;1353;-53
2023/04/18 11:16:25;;;;;;;;;;;;;;;16.60;52.32;100582.16;5004503;28;1914;-53
2023/04/18 11:18:51;;;;;;;;;;;;;;;16.14;53.53;100578.66;5011339;28;1505;-54
2023/04/18 11:21:17;;;;;;;;;;;;;;;15.95;53.93;100573.75;4992837;28;2951;-50
2023/04/18 11:23:42;;;;;;;;;;;;;;;15.81;53.98;100575.34;5012775;28;1025;-47
2023/04/18 11:26:08;;;;;;;;;;;;;;;15.67;54.13;100578.63;4998171;28;1231;-54
2023/04/18 11:28:33;;;;;;;;;;;;;;;15.60;54.12;100580.81;5017301;28;1052;-55
2023/04/18 11:31:00;;;;;;;;;;;;;;;15.53;54.23;100583.00;5017424;28;1198;-58
2023/04/18 11:33:29;;;;;;;;;;;;;;;16.93;51.70;100573.59;5003865;28;988;-56
2023/04/18 11:35:55;;;;;;;;;;;;;;;17.22;50.78;100567.38;5023871;28;1910;-53
2023/04/18 11:38:26;;;;;;;;;;;;;;;16.33;53.16;100560.53;5016992;28;1125;-53
2023/04/18 11:40:51;;;;;;;;;;;;;;;16.06;53.54;100567.16;5015629;28;1089;-51
2023/04/18 11:43:20;;;;;;;;;;;;;;;15.89;53.86;100561.94;5017390;28;1226;-48
2023/04/18 11:45:50;;;;;;;;;;;;;;;15.77;54.06;100555.03;5012002;28;1229;-52
2023/04/18 11:48:16;;;;;;;;;;;;;;;15.65;54.33;100547.91;5017953;28;1025;-52
2023/04/18 11:50:41;;;;;;;;;;;;;;;16.03;53.93;100542.19;5018607;28;1035;-51
2023/04/18 11:53:07;;;;;;;;;;;;;;;17.39;50.73;100534.88;5017125;28;1182;-53
2023/04/18 11:55:32;;;;;;;;;;;;;;;16.63;52.51;100516.81;5003994;28;1906;-53
2023/04/18 11:57:58;;;;;;;;;;;;;;;16.20;53.33;100515.28;5016613;28;1178;-52
2023/04/18 12:00:30;;;;;;;;;;;;;;;15.91;54.21;100509.56;5022576;28;1044;-48
2023/04/18 12:02:55;;;;;;;;;;;;;;;15.79;54.17;100519.97;5016355;28;1071;-50
2023/04/18 12:05:25;;;;;;;;;;;;;;;15.68;54.35;100519.13;5017612;28;1276;-59
2023/04/18 12:07:50;;;;;;;;;;;;;;;15.60;54.28;100508.72;5016755;28;1019;-51
2023/04/18 12:10:18;;;;;;;;;;;;;;;15.53;54.48;100500.78;5016421;28;1072;-49
2023/04/18 12:12:50;;;;;;;;;;;;;;;16.15;53.63;100496.09;5016434;28;1064;-53
2023/04/18 12:15:16;;;;;;;;;;;;;;;17.47;50.73;100492.19;5009038;28;1898;-54
2023/04/18 12:17:47;;;;;;;;;;;;;;;16.80;52.15;100494.50;5008802;28;1104;-55
2023/04/18 12:20:13;;;;;;;;;;;;;;;16.22;53.41;100495.81;5016676;28;1317;-54
2023/04/18 12:22:48;;;;;;;;;;;;;;;15.98;54.14;100485.44;5015595;28;1008;-50
2023/04/18 12:25:20;;;;;;;;;;;;;;;15.88;53.98;100480.78;5018403;28;872;-53
2023/04/18 12:27:59;;;;;;;;;;;;;;;15.77;54.34;100475.53;5009704;28;1168;-50
2023/04/18 12:30:31;;;;;;;;;;;;;;;15.70;54.41;100468.44;5016970;28;1118;-46
2023/04/18 12:33:00;;;;;;;;;;;;;;;15.85;54.35;100458.56;5014206;28;1102;-44
2023/04/18 12:35:26;;;;;;;;;;;;;;;17.32;51.24;100456.59;5016736;28;1902;-58
2023/04/18 12:37:52;;;;;;;;;;;;;;;16.60;52.94;100457.81;5014326;28;1079;-52
2023/04/18 12:40:18;;;;;;;;;;;;;;;16.16;53.94;100463.97;5009966;28;1216;-49
2023/04/18 12:42:45;;;;;;;;;;;;;;;15.91;54.41;100457.47;5014773;28;1151;-52
2023/04/18 12:45:12;;;;;;;;;;;;;;;15.81;54.29;100461.06;5015875;28;1248;-49
2023/04/18 12:47:38;;;;;;;;;;;;;;;15.74;54.11;100452.25;5016566;28;1024;-46